ADDS METAR Data INFO
IDs: Format: Raw Decoded Include TAF

Data at: 1938 UTC 17 Feb 2018

KTVI 171915Z AUTO 23007KT 10SM SCT030 SCT038 OVC055 24/20 A3015 RMK AO2
KTVI 171855Z AUTO 21003KT 10SM BKN029 BKN037 OVC055 23/19 A3016 RMK AO2
KTVI 171835Z AUTO 00000KT 10SM BKN029 BKN037 OVC050 23/21 A3016 RMK AO2
KTVI 171815Z AUTO 22003KT 10SM SCT025 BKN029 OVC049 22/21 A3017 RMK AO2
KTVI 171755Z AUTO 00000KT 10SM SCT014 BKN019 OVC050 22/22 A3018 RMK AO2
KTVI 171735Z AUTO 00000KT 10SM BKN012 BKN019 21/21 A3019 RMK AO2
KTVI 171715Z AUTO 00000KT 10SM BKN006 BKN017 19/19 A3019 RMK AO2
KTVI 171655Z AUTO 21005KT 7SM OVC004 19/19 A3020 RMK AO2
KTVI 171635Z AUTO 21006KT 5SM BR OVC004 18/18 A3020 RMK AO2
KTVI 171615Z AUTO 23006KT 5SM BR OVC002 18/18 A3020 RMK AO2
KTVI 171555Z AUTO 22008KT 5SM BR OVC002 18/18 A3020 RMK AO2
KTVI 171535Z AUTO 22007KT 3SM BR OVC002 18/18 A3020 RMK AO2
KTVI 171515Z AUTO 22004KT 1 1/2SM BR OVC002 17/17 A3020 RMK AO2
KTVI 171455Z AUTO 21005KT 3/4SM BR OVC002 17/17 A3020 RMK AO2
KTVI 171435Z AUTO 21003KT 1/4SM FG OVC002 17/17 A3020 RMK AO2
KTVI 171415Z AUTO 20005KT 1/4SM -RA OVC002 17/17 A3019 RMK AO2
KTVI 171355Z AUTO 21005KT 1/4SM -RA OVC002 17/17 A3019 RMK AO2
KTVI 171335Z AUTO 18005KT 1/4SM -RA OVC002 16/16 A3019 RMK AO2
KTVI 171315Z AUTO 19004KT 1/4SM -RA OVC002 16/16 A3018 RMK AO2
KTVI 171255Z AUTO 20003KT M1/4SM -RA OVC002 16/16 A3018 RMK AO2
KTVI 171235Z AUTO 20004KT 1/4SM -RA OVC002 16/16 A3018 RMK AO2
KTVI 171215Z AUTO 19003KT 1/4SM -RA OVC002 16/16 A3017 RMK AO2
KTVI 171155Z AUTO 18004KT 1/4SM FG OVC002 16/16 A3017 RMK AO2
KTVI 171135Z AUTO 00000KT M1/4SM FG OVC002 16/16 A3017 RMK AO2
KTVI 171115Z AUTO 00000KT M1/4SM FG OVC002 16/16 A3016 RMK AO2
KTVI 171055Z AUTO 00000KT M1/4SM FG OVC002 16/16 A3016 RMK AO2
KTVI 171035Z AUTO 00000KT 1/4SM FG OVC002 15/15 A3015 RMK AO2
KTVI 171015Z AUTO 00000KT 1/4SM FG OVC002 15/15 A3015 RMK AO2
KTVI 170955Z AUTO 00000KT 1/4SM FG OVC002 15/15 A3015 RMK AO2
KTVI 170935Z AUTO 00000KT 1/2SM FG OVC002 15/15 A3015 RMK AO2
KTVI 170915Z AUTO 00000KT 7SM BKN002 BKN006 15/15 A3015 RMK AO2
KTVI 170855Z AUTO 00000KT 7SM SCT004 15/15 A3015 RMK AO2
KTVI 170835Z AUTO 00000KT 7SM SCT004 15/15 A3014 RMK AO2
KTVI 170815Z AUTO 00000KT 1 1/2SM BR OVC004 15/15 A3014 RMK AO2 VIS 1/2V5
KTVI 170755Z AUTO 00000KT 1/4SM FG OVC004 A3014 RMK AO2
KTVI 170735Z AUTO 00000KT 5SM HZ SCT005 A3014 RMK AO2
KTVI 170715Z AUTO 00000KT 7SM SCT005 A3015 RMK AO2
KTVI 170655Z AUTO 00000KT 10SM CLR A3015 RMK AO2
KTVI 170635Z AUTO 00000KT 7SM CLR A3015 RMK AO2
KTVI 170615Z AUTO 00000KT 10SM CLR A3015 RMK AO2
KTVI 170555Z AUTO 00000KT 5SM HZ CLR A3015 RMK AO2
KTVI 170535Z AUTO 00000KT 7SM CLR A3015 RMK AO2
KTVI 170515Z AUTO 00000KT 7SM CLR A3014 RMK AO2
KTVI 170455Z AUTO 23003KT 7SM CLR A3014 RMK AO2
KTVI 170435Z AUTO 22003KT 7SM CLR A3014 RMK AO2
KTVI 170415Z AUTO 00000KT 10SM CLR A3014 RMK AO2
KTVI 170355Z AUTO 00000KT 7SM CLR A3014 RMK AO2
KTVI 170335Z AUTO 00000KT 10SM CLR A3015 RMK AO2
KTVI 170315Z AUTO 00000KT 7SM CLR A3015 RMK AO2
KTVI 170255Z AUTO 00000KT 7SM CLR A3015 RMK AO2
KTVI 170235Z AUTO 00000KT 10SM CLR A3015 RMK AO2
KTVI 170215Z AUTO 00000KT 10SM CLR A3015 RMK AO2
KTVI 170155Z AUTO 00000KT 10SM CLR A3015 RMK AO2
KTVI 170135Z AUTO 00000KT 10SM CLR 20/20 A3014 RMK AO2
KTVI 170115Z AUTO 21003KT 10SM CLR 20/20 A3014 RMK AO2
KTVI 170055Z AUTO 00000KT 10SM CLR 21/21 A3013 RMK AO2
KTVI 170035Z AUTO 23004KT 10SM CLR 21/21 A3013 RMK AO2
KTVI 170015Z AUTO 20005KT 10SM CLR 22/20 A3012 RMK AO2
KTVI 162355Z AUTO 21005KT 10SM CLR 22/18 A3012 RMK AO2
KTVI 162335Z AUTO 26003KT 10SM CLR 25/15 A3011 RMK AO2
KTVI 162315Z AUTO 29004KT 10SM CLR 25/15 A3010 RMK AO2
KTVI 162255Z AUTO 28005KT 10SM CLR 26/15 A3009 RMK AO2
KTVI 162235Z AUTO 28006G14KT 10SM CLR 27/14 A3009 RMK AO2
KTVI 162215Z AUTO 27007KT 10SM CLR 27/14 A3009 RMK AO2
KTVI 162155Z AUTO 27005G14KT 10SM CLR 27/14 A3009 RMK AO2
KTVI 162135Z AUTO 29008G14KT 260V320 10SM CLR 27/14 A3009 RMK AO2
KTVI 162115Z AUTO 26010G16KT 240V300 10SM CLR 27/14 A3009 RMK AO2
KTVI 162055Z AUTO 28007KT 240V300 10SM SCT050 27/14 A3009 RMK AO2
KTVI 162035Z AUTO 29006KT 10SM BKN050 27/15 A3009 RMK AO2
KTVI 162015Z AUTO 28010G14KT 260V320 7SM SCT060 28/15 A3009 RMK AO2
KTVI 161955Z AUTO 28012G17KT 10SM BKN050 28/15 A3010 RMK AO2
KTVI 161935Z AUTO 29010G15KT 260V320 10SM SCT049 BKN055 27/16 A3010 RMK AO2
KTVI 161915Z AUTO 25011G15KT 10SM SCT055 27/16 A3010 RMK AO2
KTVI 161855Z AUTO 28011G15KT 10SM CLR 26/16 A3011 RMK AO2
KTVI 161835Z AUTO 26008KT 10SM SCT035 SCT041 26/17 A3012 RMK AO2
KTVI 161815Z AUTO 25008KT 10SM SCT035 SCT040 26/17 A3013 RMK AO2
KTVI 161755Z AUTO 24012G22KT 10SM SCT032 SCT048 26/18 A3014 RMK AO2
KTVI 161735Z AUTO 25012G16KT 200V260 10SM SCT027 BKN035 BKN046 26/18 A3016 RMK AO2
KTVI 161715Z AUTO 25010G16KT 10SM SCT021 BKN029 BKN038 24/18 A3017 RMK AO2
KTVI 161655Z AUTO 24011G20KT 7SM BKN019 BKN027 BKN040 24/19 A3018 RMK AO2
KTVI 161635Z AUTO 25011G15KT 10SM BKN017 OVC022 23/21 A3019 RMK AO2
KTVI 161615Z AUTO 25009G14KT 10SM BKN013 OVC020 22/22 A3020 RMK AO2
KTVI 161555Z AUTO 24008KT 10SM OVC011 22/22 A3020 RMK AO2
KTVI 161535Z AUTO 25008KT 10SM OVC009 21/21 A3021 RMK AO2
KTVI 161515Z AUTO 23007KT 10SM OVC007 21/21 A3021 RMK AO2
KTVI 161455Z AUTO 23009KT 7SM OVC005 A3021 RMK AO2
KTVI 161435Z AUTO 22006KT 10SM OVC003 19/19 A3021 RMK AO2
KTVI 161415Z AUTO 22006KT 7SM OVC003 18/18 A3021 RMK AO2
KTVI 161355Z AUTO 23003KT 7SM OVC003 18/18 A3021 RMK AO2
KTVI 161335Z AUTO 21004KT 4SM BR OVC003 17/17 A3020 RMK AO2
KTVI 161315Z AUTO 21004KT 4SM BR OVC003 17/17 A3020 RMK AO2
KTVI 161255Z AUTO 21004KT 3SM BR OVC003 17/17 A3019 RMK AO2
KTVI 161235Z AUTO 23004KT 3SM BR OVC003 17/17 A3019 RMK AO2
KTVI 161215Z AUTO 20004KT 2 1/2SM BR OVC003 16/16 A3019 RMK AO2
KTVI 161155Z AUTO 19003KT 2 1/2SM BR OVC003 16/16 A3019 RMK AO2
KTVI 161135Z AUTO 00000KT 1 3/4SM BR OVC003 16/16 A3019 RMK AO2
KTVI 161115Z AUTO 00000KT 1 1/2SM BR OVC003 16/16 A3019 RMK AO2
KTVI 161055Z AUTO 00000KT 1 1/4SM BR OVC003 16/16 A3018 RMK AO2
KTVI 161035Z AUTO 26003KT 1 3/4SM BR OVC003 16/16 A3018 RMK AO2
KTVI 161015Z AUTO 23003KT 1 1/2SM BR OVC003 16/16 A3017 RMK AO2
KTVI 160955Z AUTO 24006KT 1SM BR OVC003 16/16 A3016 RMK AO2
KTVI 160935Z AUTO 23005KT 1SM BR OVC003 16/16 A3017 RMK AO2
KTVI 160915Z AUTO 23004KT 1SM BR OVC003 16/16 A3017 RMK AO2
KTVI 160855Z AUTO 23004KT 2SM BR OVC003 16/16 A3017 RMK AO2
KTVI 160835Z AUTO 22005KT 4SM BR OVC003 16/16 A3017 RMK AO2
KTVI 160815Z AUTO 23005KT 4SM BR OVC003 16/16 A3018 RMK AO2
KTVI 160755Z AUTO 25005KT 4SM BR OVC003 16/16 A3018 RMK AO2